KEZS

Shawano Municipal Airport

Shawano, Wisconsin, USA
METAR KEZS 231415Z AUTO 00000KT 1 1/4SM BR OVC004 01/00 A3002 RMK AO2 T00120002
Observed Flight Rules
Feb-23 @ 14:15 UTC (17 minutes ago) Instrument Flight Rules
Wind Visibility Clouds Conditions
Calm 1 1/4 miles
  • Overcast at 400' AGL
  • Mist
Temperatures Readings
Current 1°C / 34°F
Dewpoint 0°C / 32°F
Humidity 93%
Altimeter 30.02" Hg
Pressure 1017 hPa
Elevation 248
METAR KEZS 231415Z AUTO 00000KT 1 1/4SM BR OVC004 01/00 A3002 RMK AO2 T00120002
Observed Flight Rules
Feb-23 @ 14:15 UTC
(17 minutes ago)
LIFR
Wind Visibility
Calm 1 1/4 miles
Clouds
  • Overcast at 400' AGL
Conditions
  • Mist
Temperature Dewpoint
1°C / 34°F 0°C / 32°F
Humidity Altimeter Pressure
93% 30.02" Hg 1017 hPa